Time;durP1;ratioP1;P1;durP2;ratioP2;P2;SDS_P1;SDS_P2;PMS_P1;PMS_P2;Temp;Humidity;BMP_temperature;BMP_pressure;BME280_temperature;BME280_humidity;BME280_pressure;Samples;Min_cycle;Max_cycle;Signal;HPM_P1;HPM_P2
2021/06/09 00:01:04;;;;;;;9.88;7.07;;;;;;;;;;5015003;28;20064;-77
2021/06/09 00:03:30;;;;;;;10.07;6.72;;;;;;;;;;5014875;28;20488;-77
2021/06/09 00:05:55;;;;;;;7.65;6.70;;;;;;;;;;5031218;28;20043;-77
2021/06/09 00:18:26;;;;;;;8.23;6.25;;;;;;;;;;5012229;28;20030;-77
2021/06/09 00:24:15;;;;;;;6.85;5.53;;;;;;;;;;5012097;28;20534;-77
2021/06/09 00:26:40;;;;;;;5.88;5.15;;;;;;;;;;5031571;28;20120;-77
2021/06/09 00:29:06;;;;;;;6.65;5.40;;;;;;;;;;5014280;28;20105;-77
2021/06/09 00:31:31;;;;;;;6.60;4.97;;;;;;;;;;5014318;28;20037;-76
2021/06/09 00:33:57;;;;;;;5.40;4.32;;;;;;;;;;5014233;28;20065;-77
2021/06/09 00:36:23;;;;;;;7.40;4.97;;;;;;;;;;5014392;28;20111;-77
2021/06/09 00:38:48;;;;;;;7.60;5.20;;;;;;;;;;5014519;28;20036;-77
2021/06/09 00:41:14;;;;;;;8.75;5.47;;;;;;;;;;5030613;28;20037;-77
2021/06/09 00:43:39;;;;;;;8.07;5.15;;;;;;;;;;5014251;28;20098;-77
2021/06/09 00:46:09;;;;;;;5.90;4.72;;;;;;;;;;5014324;28;20042;-77
2021/06/09 00:48:39;;;;;;;6.70;4.82;;;;;;;;;;5014899;28;20063;-77
2021/06/09 00:51:12;;;;;;;7.45;5.22;;;;;;;;;;5014438;28;20037;-77
2021/06/09 00:53:40;;;;;;;8.23;4.88;;;;;;;;;;5014391;28;20104;-77
2021/06/09 00:56:12;;;;;;;5.22;4.72;;;;;;;;;;5014186;28;20060;-77
2021/06/09 00:58:38;;;;;;;;;;;;;;;;;;5015357;28;20029;-77
2021/06/09 01:01:03;;;;;;;6.18;4.25;;;;;;;;;;5030476;28;19917;-77
2021/06/09 01:03:29;;;;;;;7.18;4.80;;;;;;;;;;5013473;28;20510;-77
2021/06/09 01:05:55;;;;;;;6.00;4.78;;;;;;;;;;5013822;28;20033;-76
2021/06/09 01:08:20;;;;;;;7.18;4.53;;;;;;;;;;5013878;28;20446;-77
2021/06/09 01:10:49;;;;;;;5.30;3.85;;;;;;;;;;5013183;28;20053;-77
2021/06/09 01:13:22;;;;;;;6.47;4.68;;;;;;;;;;5013874;28;20033;-77
2021/06/09 01:15:48;;;;;;;6.00;4.60;;;;;;;;;;5013562;28;20029;-77
2021/06/09 01:18:13;;;;;;;7.03;4.57;;;;;;;;;;5014033;28;20045;-77
2021/06/09 01:20:39;;;;;;;6.10;4.40;;;;;;;;;;5014189;28;20068;-77
2021/06/09 01:23:04;;;;;;;5.72;4.50;;;;;;;;;;5013906;28;20029;-77
2021/06/09 01:25:30;;;;;;;5.43;4.43;;;;;;;;;;4980896;28;20352;-77
2021/06/09 01:27:56;;;;;;;7.75;4.75;;;;;;;;;;4981033;28;20467;-77
2021/06/09 01:30:22;;;;;;;5.38;4.22;;;;;;;;;;5013586;28;20117;-77
2021/06/09 01:32:47;;;;;;;9.30;4.90;;;;;;;;;;5010379;28;20033;-78
2021/06/09 01:35:13;;;;;;;6.50;4.35;;;;;;;;;;4977976;28;20057;-77
2021/06/09 01:37:38;;;;;;;6.35;4.65;;;;;;;;;;5010680;28;20144;-77
2021/06/09 01:40:06;;;;;;;6.13;4.55;;;;;;;;;;4977956;28;20026;-77
2021/06/09 01:42:32;;;;;;;5.90;4.20;;;;;;;;;;4997490;28;20037;-77
2021/06/09 01:44:57;;;;;;;8.15;4.85;;;;;;;;;;4996967;28;20045;-77
2021/06/09 01:47:23;;;;;;;6.28;4.80;;;;;;;;;;5013787;28;20039;-76
2021/06/09 01:49:48;;;;;;;6.28;4.00;;;;;;;;;;5013806;28;20034;-77
2021/06/09 01:52:14;;;;;;;6.22;4.30;;;;;;;;;;5030286;28;20033;-77
2021/06/09 01:54:39;;;;;;;6.28;4.22;;;;;;;;;;5013304;28;20109;-77
2021/06/09 01:57:06;;;;;;;7.05;5.13;;;;;;;;;;4997101;28;20040;-77
2021/06/09 01:59:32;;;;;;;5.38;4.53;;;;;;;;;;5013692;28;20498;-77
2021/06/09 02:01:57;;;;;;;5.43;4.70;;;;;;;;;;5013350;28;20104;-77
2021/06/09 02:04:24;;;;;;;6.63;4.43;;;;;;;;;;4997217;28;20821;-76
2021/06/09 02:06:50;;;;;;;6.55;4.70;;;;;;;;;;5017271;28;20037;-77
2021/06/09 02:09:15;;;;;;;6.85;4.75;;;;;;;;;;5016716;28;20483;-76
2021/06/09 02:11:41;;;;;;;6.55;4.65;;;;;;;;;;5016913;28;20084;-77
2021/06/09 02:14:07;;;;;;;5.43;4.60;;;;;;;;;;5017029;28;20025;-77
2021/06/09 02:16:34;;;;;;;6.13;4.65;;;;;;;;;;5000720;28;20549;-77
2021/06/09 02:19:00;;;;;;;5.10;4.30;;;;;;;;;;5017243;28;20038;-77
2021/06/09 02:21:25;;;;;;;5.70;4.45;;;;;;;;;;5013414;28;20088;-77
2021/06/09 02:23:51;;;;;;;6.13;4.40;;;;;;;;;;5012706;28;20550;-77
2021/06/09 02:26:16;;;;;;;5.93;4.30;;;;;;;;;;5013446;28;20033;-77
2021/06/09 02:28:42;;;;;;;5.22;4.72;;;;;;;;;;5000207;28;20152;-77
2021/06/09 02:31:08;;;;;;;5.70;3.80;;;;;;;;;;5017098;28;20367;-77
2021/06/09 02:33:34;;;;;;;7.50;4.32;;;;;;;;;;5016346;28;20045;-77
2021/06/09 02:35:59;;;;;;;5.72;4.68;;;;;;;;;;5017137;28;20033;-77
2021/06/09 02:38:25;;;;;;;5.22;3.60;;;;;;;;;;5016187;28;20044;-77
2021/06/09 02:40:52;;;;;;;5.95;4.30;;;;;;;;;;5016607;28;20034;-77
2021/06/09 02:43:18;;;;;;;7.53;4.80;;;;;;;;;;5016650;28;20040;-77
2021/06/09 02:45:51;;;;;;;6.18;4.45;;;;;;;;;;5016210;28;20470;-77
2021/06/09 02:48:17;;;;;;;5.57;3.97;;;;;;;;;;5016553;28;20036;-77
2021/06/09 02:50:43;;;;;;;6.57;4.32;;;;;;;;;;4999343;28;20037;-77
2021/06/09 02:53:31;;;;;;;6.65;3.88;;;;;;;;;;5015995;28;20047;-77
2021/06/09 02:56:24;;;;;;;5.25;3.95;;;;;;;;;;5032231;28;20101;-76
2021/06/09 02:59:14;;;;;;;4.05;3.40;;;;;;;;;;5049648;28;20029;-77
2021/06/09 03:01:41;;;;;;;5.22;3.83;;;;;;;;;;5032194;28;20033;-77
2021/06/09 03:04:19;;;;;;;6.43;3.90;;;;;;;;;;5032147;28;20099;-76
2021/06/09 03:06:52;;;;;;;5.80;3.85;;;;;;;;;;5016119;28;20048;-77
2021/06/09 03:09:31;;;;;;;4.90;3.75;;;;;;;;;;5016264;28;20037;-77
2021/06/09 03:12:47;;;;;;;5.30;3.47;;;;;;;;;;5016575;28;20040;-77
2021/06/09 03:15:18;;;;;;;4.30;3.70;;;;;;;;;;5021227;28;20053;-77
2021/06/09 03:17:53;;;;;;;5.55;3.85;;;;;;;;;;5014782;28;20437;-77
2021/06/09 03:20:34;;;;;;;6.43;5.07;;;;;;;;;;5048668;28;20034;-77
2021/06/09 03:23:21;;;;;;;4.60;3.65;;;;;;;;;;5016970;28;20484;-76
2021/06/09 03:26:13;;;;;;;5.78;3.30;;;;;;;;;;5048113;28;20041;-76
2021/06/09 03:28:58;;;;;;;4.88;3.55;;;;;;;;;;5029173;28;20125;-76
2021/06/09 03:31:28;;;;;;;5.00;3.30;;;;;;;;;;5015468;28;20404;-77
2021/06/09 03:33:53;;;;;;;4.63;3.60;;;;;;;;;;5015553;28;20136;-77
2021/06/09 03:36:26;;;;;;;3.85;3.25;;;;;;;;;;4998905;28;20116;-76
2021/06/09 03:38:58;;;;;;;4.70;3.47;;;;;;;;;;4963585;28;20550;-76
2021/06/09 03:41:25;;;;;;;4.57;3.50;;;;;;;;;;5012440;28;20034;-76
2021/06/09 03:43:53;;;;;;;5.25;3.65;;;;;;;;;;4979525;28;20036;-76
2021/06/09 03:46:21;;;;;;;7.72;3.85;;;;;;;;;;4976715;28;20076;-76
2021/06/09 03:48:46;;;;;;;4.10;3.28;;;;;;;;;;5015329;28;20492;-76
2021/06/09 03:51:12;;;;;;;4.32;3.42;;;;;;;;;;5015402;28;20041;-76
2021/06/09 03:53:38;;;;;;;4.13;3.70;;;;;;;;;;5011940;28;20030;-76
2021/06/09 03:56:04;;;;;;;5.95;3.42;;;;;;;;;;4995815;28;20041;-76
2021/06/09 03:58:30;;;;;;;4.43;3.17;;;;;;;;;;4995607;28;20038;-77
2021/06/09 04:00:56;;;;;;;4.60;3.50;;;;;;;;;;4995383;28;20042;-76
2021/06/09 04:03:23;;;;;;;4.35;3.05;;;;;;;;;;4979175;28;20041;-76
2021/06/09 04:05:48;;;;;;;5.80;3.20;;;;;;;;;;4984595;28;20479;-77
2021/06/09 04:08:15;;;;;;;4.85;3.85;;;;;;;;;;5014456;28;20095;-77
2021/06/09 04:10:44;;;;;;;7.00;3.72;;;;;;;;;;5014686;28;20065;-77
2021/06/09 04:13:09;;;;;;;5.65;3.53;;;;;;;;;;5014432;28;20175;-76
2021/06/09 04:15:35;;;;;;;5.03;3.20;;;;;;;;;;5014661;28;20037;-76
2021/06/09 04:18:00;;;;;;;6.68;3.80;;;;;;;;;;5014551;28;20447;-76
2021/06/09 04:20:30;;;;;;;9.18;3.97;;;;;;;;;;5014874;28;20037;-76
2021/06/09 04:22:56;;;;;;;4.70;3.40;;;;;;;;;;4998569;28;20220;-76
2021/06/09 04:25:22;;;;;;;5.38;3.50;;;;;;;;;;5013512;28;20116;-76
2021/06/09 04:27:48;;;;;;;6.57;3.15;;;;;;;;;;5013895;28;20442;-76
2021/06/09 04:30:18;;;;;;;5.55;3.75;;;;;;;;;;4997767;28;20416;-76
2021/06/09 04:32:56;;;;;;;4.90;3.17;;;;;;;;;;4981722;28;20029;-77
2021/06/09 04:35:27;;;;;;;4.28;3.47;;;;;;;;;;5015868;28;20104;-76
2021/06/09 04:37:52;;;;;;;3.90;2.92;;;;;;;;;;4998794;28;20026;-76
2021/06/09 04:40:22;;;;;;;5.45;3.38;;;;;;;;;;5014385;28;20057;-76
2021/06/09 04:42:48;;;;;;;3.95;2.83;;;;;;;;;;5014768;28;20487;-76
2021/06/09 04:45:14;;;;;;;4.00;2.90;;;;;;;;;;4998019;28;20050;-76
2021/06/09 04:47:39;;;;;;;4.22;3.05;;;;;;;;;;4997776;28;20479;-76
2021/06/09 04:50:06;;;;;;;3.70;3.20;;;;;;;;;;5013280;28;20029;-75
2021/06/09 04:52:31;;;;;;;6.07;3.42;;;;;;;;;;5011856;28;20061;-76
2021/06/09 04:54:56;;;;;;;3.88;2.95;;;;;;;;;;5011106;28;20060;-76
2021/06/09 04:57:22;;;;;;;6.72;3.63;;;;;;;;;;5006367;28;20037;-76
2021/06/09 04:59:47;;;;;;;3.53;2.65;;;;;;;;;;5013682;28;20060;-75
2021/06/09 05:02:13;;;;;;;5.50;3.17;;;;;;;;;;5030628;28;20870;-74
2021/06/09 05:04:38;;;;;;;5.15;3.17;;;;;;;;;;4994620;28;20029;-74
2021/06/09 05:07:04;;;;;;;4.88;2.95;;;;;;;;;;5013283;28;20046;-73
2021/06/09 05:09:29;;;;;;;5.15;2.65;;;;;;;;;;5013093;28;20049;-74
2021/06/09 05:12:00;;;;;;;5.00;3.03;;;;;;;;;;4997263;28;20041;-73
2021/06/09 05:14:30;;;;;;;3.93;3.37;;;;;;;;;;5031044;28;20025;-73
2021/06/09 05:16:55;;;;;;;6.35;3.50;;;;;;;;;;5014500;28;20392;-73
2021/06/09 05:19:23;;;;;;;6.00;3.75;;;;;;;;;;5012009;28;20044;-73
2021/06/09 05:21:51;;;;;;;6.05;3.38;;;;;;;;;;5013974;28;20075;-73
2021/06/09 05:24:18;;;;;;;7.65;3.40;;;;;;;;;;5013871;28;20445;-73
2021/06/09 05:26:44;;;;;;;4.03;3.30;;;;;;;;;;5013756;28;20037;-73
2021/06/09 05:29:10;;;;;;;4.90;3.25;;;;;;;;;;5013795;28;20040;-73
2021/06/09 05:31:36;;;;;;;4.82;3.25;;;;;;;;;;5009286;28;20021;-73
2021/06/09 05:34:01;;;;;;;4.88;3.22;;;;;;;;;;5013656;28;20120;-73
2021/06/09 05:36:28;;;;;;;5.38;3.30;;;;;;;;;;5030109;28;20052;-74
2021/06/09 05:38:54;;;;;;;4.43;3.10;;;;;;;;;;5014020;28;20065;-74
2021/06/09 05:41:19;;;;;;;6.97;3.63;;;;;;;;;;5015800;28;20123;-74
2021/06/09 05:43:45;;;;;;;4.43;3.38;;;;;;;;;;5002187;28;20064;-74
2021/06/09 05:46:10;;;;;;;6.07;4.43;;;;;;;;;;5000639;28;20025;-75
2021/06/09 05:48:40;;;;;;;4.65;3.05;;;;;;;;;;5017394;28;20033;-75
2021/06/09 05:51:05;;;;;;;6.05;4.03;;;;;;;;;;5017681;28;20029;-75
2021/06/09 05:53:31;;;;;;;6.97;3.70;;;;;;;;;;5017252;28;20510;-75
2021/06/09 05:55:57;;;;;;;3.92;3.47;;;;;;;;;;5017603;28;20029;-74
2021/06/09 05:58:23;;;;;;;6.10;4.20;;;;;;;;;;5016428;28;20109;-74
2021/06/09 06:00:54;;;;;;;7.78;5.75;;;;;;;;;;5000637;28;20036;-74
2021/06/09 06:03:20;;;;;;;10.25;8.05;;;;;;;;;;5034893;28;20792;-74
2021/06/09 06:05:46;;;;;;;8.98;7.25;;;;;;;;;;5017091;28;20479;-74
2021/06/09 06:08:11;;;;;;;7.47;6.50;;;;;;;;;;5000639;28;20036;-73
2021/06/09 06:10:37;;;;;;;7.07;6.35;;;;;;;;;;5033407;28;20026;-74
2021/06/09 06:13:03;;;;;;;8.23;6.90;;;;;;;;;;5000765;28;20041;-73
2021/06/09 06:15:28;;;;;;;8.65;6.85;;;;;;;;;;5012999;28;20037;-74
2021/06/09 06:17:54;;;;;;;10.13;7.10;;;;;;;;;;4997572;28;20500;-74
2021/06/09 06:20:21;;;;;;;9.80;7.15;;;;;;;;;;4997770;28;20041;-73
2021/06/09 06:22:47;;;;;;;9.23;7.32;;;;;;;;;;4997436;28;20069;-73
2021/06/09 06:25:22;;;;;;;8.00;6.68;;;;;;;;;;4996832;28;20049;-74
2021/06/09 06:27:48;;;;;;;7.07;6.38;;;;;;;;;;5010102;28;20398;-73
2021/06/09 06:30:14;;;;;;;6.90;6.30;;;;;;;;;;5029357;28;20126;-73
2021/06/09 06:32:40;;;;;;;8.00;7.20;;;;;;;;;;5013128;28;20041;-73
2021/06/09 06:35:05;;;;;;;8.80;6.65;;;;;;;;;;4996847;28;20022;-74
2021/06/09 06:37:31;;;;;;;6.60;5.95;;;;;;;;;;4997602;28;20385;-73
2021/06/09 06:39:56;;;;;;;8.07;7.25;;;;;;;;;;5015841;28;20056;-74
2021/06/09 06:42:22;;;;;;;8.30;7.50;;;;;;;;;;5033115;28;20524;-73
2021/06/09 06:44:47;;;;;;;8.57;6.60;;;;;;;;;;5016139;28;20035;-74
2021/06/09 06:47:15;;;;;;;8.98;7.47;;;;;;;;;;5016786;28;20185;-73
2021/06/09 06:49:42;;;;;;;9.88;8.32;;;;;;;;;;5013591;28;20033;-74
2021/06/09 06:52:07;;;;;;;10.30;7.78;;;;;;;;;;5001585;28;20117;-73
2021/06/09 06:54:33;;;;;;;9.15;7.20;;;;;;;;;;5016107;28;20309;-73
2021/06/09 06:56:58;;;;;;;8.70;7.22;;;;;;;;;;5016172;28;20041;-73
2021/06/09 06:59:25;;;;;;;8.13;6.80;;;;;;;;;;5016016;28;20047;-74
2021/06/09 07:01:51;;;;;;;10.88;7.15;;;;;;;;;;5032563;28;20487;-74
2021/06/09 07:04:17;;;;;;;8.07;7.10;;;;;;;;;;5032244;28;20051;-74
2021/06/09 07:06:46;;;;;;;7.70;6.93;;;;;;;;;;5015880;28;20025;-73
2021/06/09 07:09:12;;;;;;;9.43;7.07;;;;;;;;;;5032642;28;20029;-73
2021/06/09 07:11:38;;;;;;;7.88;6.50;;;;;;;;;;5016076;28;20044;-73
2021/06/09 07:14:07;;;;;;;9.48;8.57;;;;;;;;;;5012440;28;20021;-74
2021/06/09 07:16:33;;;;;;;12.63;9.15;;;;;;;;;;4996113;28;20033;-74
2021/06/09 07:18:59;;;;;;;12.18;8.95;;;;;;;;;;4996410;28;20110;-74
2021/06/09 07:21:24;;;;;;;14.73;12.82;;;;;;;;;;4980078;28;20088;-74
2021/06/09 07:23:50;;;;;;;16.10;13.57;;;;;;;;;;5015703;28;20029;-74
2021/06/09 07:26:16;;;;;;;20.20;15.45;;;;;;;;;;5031652;28;20041;-74
2021/06/09 07:28:55;;;;;;;37.45;31.30;;;;;;;;;;5014916;28;20121;-74
2021/06/09 07:31:47;;;;;;;29.45;22.30;;;;;;;;;;5015406;28;20068;-74
2021/06/09 07:34:12;;;;;;;22.58;19.13;;;;;;;;;;5026390;28;20041;-74
2021/06/09 07:36:54;;;;;;;13.02;11.73;;;;;;;;;;5014376;28;20052;-74
2021/06/09 07:39:30;;;;;;;17.13;11.18;;;;;;;;;;5031236;28;20518;-74
2021/06/09 07:41:56;;;;;;;13.75;9.70;;;;;;;;;;5029138;28;20068;-74
2021/06/09 07:44:21;;;;;;;10.35;8.50;;;;;;;;;;4997303;28;20484;-74
2021/06/09 07:46:47;;;;;;;10.63;8.70;;;;;;;;;;5013669;28;20132;-74
2021/06/09 07:49:12;;;;;;;11.65;9.15;;;;;;;;;;5015390;28;20387;-74
2021/06/09 07:51:38;;;;;;;10.68;8.70;;;;;;;;;;4982814;28;20128;-75
2021/06/09 07:54:04;;;;;;;10.95;9.85;;;;;;;;;;5014946;28;20037;-75
2021/06/09 07:56:33;;;;;;;11.18;9.93;;;;;;;;;;5031172;28;20029;-75
2021/06/09 07:59:00;;;;;;;11.40;10.10;;;;;;;;;;5031627;28;20030;-75
2021/06/09 08:01:25;;;;;;;15.23;12.23;;;;;;;;;;4998643;28;20029;-75
2021/06/09 08:03:51;;;;;;;11.38;7.85;;;;;;;;;;5014122;28;20038;-75
2021/06/09 08:06:17;;;;;;;14.82;13.32;;;;;;;;;;4998899;28;20045;-75
2021/06/09 08:08:44;;;;;;;10.85;9.00;;;;;;;;;;5014762;28;20067;-75
2021/06/09 08:11:09;;;;;;;10.35;9.35;;;;;;;;;;4998508;28;20044;-75
2021/06/09 08:13:36;;;;;;;12.45;10.77;;;;;;;;;;4998555;28;20033;-75
2021/06/09 08:16:02;;;;;;;10.90;9.38;;;;;;;;;;5011568;28;20125;-75
2021/06/09 08:18:28;;;;;;;12.15;10.93;;;;;;;;;;4979104;28;20030;-74
2021/06/09 08:21:15;;;;;;;11.10;10.10;;;;;;;;;;4995327;28;20034;-74
2021/06/09 08:23:42;;;;;;;12.23;11.10;;;;;;;;;;5011233;28;20030;-74
2021/06/09 08:26:09;;;;;;;12.82;11.43;;;;;;;;;;5001140;28;20072;-74
2021/06/09 08:28:36;;;;;;;12.70;11.30;;;;;;;;;;4994737;28;20148;-74
2021/06/09 08:31:03;;;;;;;13.63;12.40;;;;;;;;;;5005808;28;20044;-74
2021/06/09 08:33:28;;;;;;;12.73;11.63;;;;;;;;;;5011695;28;20034;-74
2021/06/09 08:35:54;;;;;;;14.35;12.98;;;;;;;;;;5012358;28;20488;-74
2021/06/09 08:38:19;;;;;;;14.43;13.00;;;;;;;;;;5014357;28;20495;-74
2021/06/09 08:40:45;;;;;;;14.52;13.32;;;;;;;;;;5028355;28;20104;-74
2021/06/09 08:43:10;;;;;;;14.10;12.52;;;;;;;;;;4997771;28;20099;-74
2021/06/09 08:45:36;;;;;;;13.30;11.95;;;;;;;;;;5013996;28;20030;-74
2021/06/09 08:48:01;;;;;;;12.93;11.68;;;;;;;;;;5013815;28;20037;-74
2021/06/09 08:50:27;;;;;;;14.68;13.38;;;;;;;;;;5014194;28;20044;-74
2021/06/09 08:52:53;;;;;;;15.00;13.57;;;;;;;;;;5013689;28;20064;-74
2021/06/09 08:55:19;;;;;;;14.38;13.07;;;;;;;;;;5012178;28;20033;-74
2021/06/09 08:57:44;;;;;;;14.95;13.38;;;;;;;;;;5011031;28;20064;-74
2021/06/09 09:00:11;;;;;;;17.90;14.52;;;;;;;;;;5013705;28;20487;-74
2021/06/09 09:02:38;;;;;;;15.55;14.05;;;;;;;;;;4982887;28;20025;-74
2021/06/09 09:05:05;;;;;;;12.73;11.52;;;;;;;;;;5029220;28;20112;-75
2021/06/09 09:07:30;;;;;;;12.20;11.00;;;;;;;;;;5012936;28;20434;-75
2021/06/09 09:09:57;;;;;;;11.90;10.90;;;;;;;;;;5011612;28;20037;-75
2021/06/09 09:12:22;;;;;;;15.43;14.05;;;;;;;;;;5030397;28;20061;-75
2021/06/09 09:14:48;;;;;;;12.95;11.77;;;;;;;;;;5032198;28;20373;-75
2021/06/09 09:17:14;;;;;;;12.60;11.43;;;;;;;;;;5018539;28;20068;-75
2021/06/09 09:19:41;;;;;;;12.00;10.90;;;;;;;;;;5033020;28;20029;-75
2021/06/09 09:22:11;;;;;;;13.85;11.82;;;;;;;;;;5017966;28;20053;-75
2021/06/09 09:24:38;;;;;;;12.57;11.38;;;;;;;;;;5034536;28;20037;-75
2021/06/09 09:27:04;;;;;;;13.15;12.02;;;;;;;;;;5033873;28;20041;-75
2021/06/09 09:29:30;;;;;;;12.23;11.15;;;;;;;;;;5014261;28;20037;-75
2021/06/09 09:31:57;;;;;;;14.27;13.07;;;;;;;;;;5012789;28;20045;-75
2021/06/09 09:34:39;;;;;;;12.25;11.05;;;;;;;;;;4988572;28;20029;-75
2021/06/09 09:37:12;;;;;;;13.10;11.48;;;;;;;;;;5028762;28;20026;-75
2021/06/09 09:39:39;;;;;;;14.38;12.85;;;;;;;;;;5031669;28;20103;-75
2021/06/09 09:42:33;;;;;;;13.10;11.48;;;;;;;;;;5034462;28;20379;-75
2021/06/09 09:45:21;;;;;;;25.83;23.08;;;;;;;;;;5016664;28;20099;-75
2021/06/09 09:48:17;;;;;;;18.08;16.20;;;;;;;;;;5017565;28;20033;-75
2021/06/09 09:50:47;;;;;;;34.58;30.10;;;;;;;;;;5012355;28;20049;-76
2021/06/09 09:53:18;;;;;;;26.63;23.08;;;;;;;;;;5030409;28;20026;-75
2021/06/09 09:56:08;;;;;;;27.37;24.37;;;;;;;;;;5029881;28;20037;-76
2021/06/09 09:58:36;;;;;;;28.23;23.35;;;;;;;;;;5035499;28;20033;-75
2021/06/09 10:01:09;;;;;;;22.92;20.52;;;;;;;;;;5033697;28;20026;-75
2021/06/09 10:03:38;;;;;;;21.17;18.92;;;;;;;;;;5017297;28;20199;-75
2021/06/09 10:06:17;;;;;;;17.13;15.43;;;;;;;;;;5016839;28;20136;-75
2021/06/09 10:08:43;;;;;;;16.10;14.50;;;;;;;;;;5017067;28;20048;-75
2021/06/09 10:11:13;;;;;;;17.45;15.60;;;;;;;;;;5033501;28;20057;-75
2021/06/09 10:13:39;;;;;;;14.70;12.75;;;;;;;;;;5016570;28;20163;-75
2021/06/09 10:16:22;;;;;;;16.60;15.00;;;;;;;;;;5016888;28;20120;-75
2021/06/09 10:19:02;;;;;;;16.45;14.27;;;;;;;;;;5017770;28;20036;-75
2021/06/09 10:21:28;;;;;;;18.10;16.25;;;;;;;;;;5000738;28;20053;-75
2021/06/09 10:24:06;;;;;;;19.17;16.25;;;;;;;;;;5000659;28;20091;-76
2021/06/09 10:26:31;;;;;;;14.82;13.50;;;;;;;;;;5011757;28;20037;-75
2021/06/09 10:29:08;;;;;;;13.98;12.75;;;;;;;;;;5013785;28;20033;-75
2021/06/09 10:31:35;;;;;;;15.88;14.27;;;;;;;;;;5015966;28;20156;-75
2021/06/09 10:34:01;;;;;;;17.20;15.60;;;;;;;;;;5015824;28;20041;-75
2021/06/09 10:36:26;;;;;;;16.42;14.82;;;;;;;;;;5016098;28;20036;-75
2021/06/09 10:38:52;;;;;;;13.93;12.52;;;;;;;;;;5016183;28;20038;-75
2021/06/09 10:41:18;;;;;;;16.20;14.60;;;;;;;;;;5000116;28;20518;-75
2021/06/09 10:43:45;;;;;;;12.13;10.82;;;;;;;;;;5009110;28;20040;-75
2021/06/09 10:46:11;;;;;;;14.55;13.25;;;;;;;;;;5016408;28;20451;-75
2021/06/09 10:48:38;;;;;;;12.07;10.82;;;;;;;;;;4998977;28;20029;-75
2021/06/09 10:51:05;;;;;;;13.95;12.63;;;;;;;;;;4999461;28;20103;-76
2021/06/09 10:53:31;;;;;;;13.95;12.50;;;;;;;;;;5015827;28;20057;-75
2021/06/09 10:55:56;;;;;;;13.55;12.00;;;;;;;;;;5015560;28;20503;-75
2021/06/09 10:58:24;;;;;;;17.80;16.10;;;;;;;;;;5015893;28;20143;-75
2021/06/09 11:00:54;;;;;;;14.73;13.23;;;;;;;;;;5000374;28;20033;-75
2021/06/09 11:03:19;;;;;;;17.77;15.88;;;;;;;;;;4999469;28;20061;-75
2021/06/09 11:05:45;;;;;;;15.75;13.85;;;;;;;;;;4998895;28;20041;-75
2021/06/09 11:08:10;;;;;;;15.68;14.23;;;;;;;;;;5014182;28;20404;-75
2021/06/09 11:10:43;;;;;;;15.40;14.00;;;;;;;;;;5015079;28;20056;-75
2021/06/09 11:13:09;;;;;;;16.05;14.55;;;;;;;;;;4999803;28;20453;-76
2021/06/09 11:15:35;;;;;;;15.32;13.82;;;;;;;;;;5015461;28;20083;-76
2021/06/09 11:18:12;;;;;;;15.45;13.98;;;;;;;;;;4999068;28;20108;-76
2021/06/09 11:20:38;;;;;;;13.77;12.38;;;;;;;;;;5016254;28;20026;-75
2021/06/09 11:23:11;;;;;;;12.70;11.40;;;;;;;;;;5013702;28;20544;-76
2021/06/09 11:25:43;;;;;;;10.68;9.68;;;;;;;;;;5013271;28;20033;-75
2021/06/09 11:28:13;;;;;;;9.77;8.77;;;;;;;;;;5015790;28;20044;-76
2021/06/09 11:30:52;;;;;;;11.93;10.80;;;;;;;;;;5015408;28;20034;-76
2021/06/09 11:33:36;;;;;;;10.88;9.52;;;;;;;;;;5016450;28;20041;-76
2021/06/09 11:36:07;;;;;;;10.48;9.57;;;;;;;;;;5048727;28;20037;-76
2021/06/09 11:38:40;;;;;;;13.88;12.02;;;;;;;;;;4998467;28;20379;-75
2021/06/09 11:41:08;;;;;;;14.48;12.98;;;;;;;;;;5016092;28;20088;-75
2021/06/09 11:43:37;;;;;;;14.75;13.20;;;;;;;;;;5015726;28;20083;-76
2021/06/09 11:46:27;;;;;;;13.38;11.77;;;;;;;;;;5015563;28;20036;-76
2021/06/09 11:49:03;;;;;;;12.27;10.77;;;;;;;;;;5009869;28;20120;-76
2021/06/09 11:51:32;;;;;;;11.48;9.98;;;;;;;;;;5030904;28;20052;-75
2021/06/09 11:54:22;;;;;;;10.13;8.90;;;;;;;;;;5030849;28;20041;-76
2021/06/09 11:56:52;;;;;;;8.75;7.75;;;;;;;;;;5031371;28;20028;-76
2021/06/09 11:59:28;;;;;;;8.68;7.75;;;;;;;;;;4999584;28;20036;-76
2021/06/09 12:01:59;;;;;;;10.18;7.50;;;;;;;;;;5031564;28;20034;-75
2021/06/09 12:04:28;;;;;;;7.50;6.80;;;;;;;;;;5014756;28;20049;-76
2021/06/09 12:06:57;;;;;;;7.57;6.20;;;;;;;;;;5030950;28;20111;-76
2021/06/09 12:09:23;;;;;;;7.13;6.43;;;;;;;;;;5032616;28;20083;-76
2021/06/09 12:11:54;;;;;;;6.95;6.20;;;;;;;;;;5015114;28;20120;-76
2021/06/09 12:14:26;;;;;;;6.60;5.93;;;;;;;;;;5015458;28;20026;-77
2021/06/09 12:16:54;;;;;;;6.40;5.80;;;;;;;;;;5029976;28;20029;-76
2021/06/09 12:19:24;;;;;;;5.65;5.15;;;;;;;;;;5015110;28;20109;-76
2021/06/09 12:21:53;;;;;;;8.63;6.90;;;;;;;;;;5014526;28;20064;-76
2021/06/09 12:24:18;;;;;;;7.45;6.63;;;;;;;;;;5014682;28;20033;-76
2021/06/09 12:26:55;;;;;;;10.02;6.47;;;;;;;;;;5014248;28;20237;-76
2021/06/09 12:29:25;;;;;;;8.23;7.50;;;;;;;;;;5014828;28;20029;-76
2021/06/09 12:31:51;;;;;;;9.32;7.18;;;;;;;;;;5014532;28;20095;-76
2021/06/09 12:34:32;;;;;;;9.70;7.22;;;;;;;;;;5014310;28;20120;-76
2021/06/09 12:37:02;;;;;;;11.32;6.97;;;;;;;;;;5014695;28;20033;-76
2021/06/09 12:39:28;;;;;;;6.85;6.07;;;;;;;;;;5014408;28;20033;-76
2021/06/09 12:41:53;;;;;;;7.57;6.78;;;;;;;;;;5030774;28;20117;-76
2021/06/09 12:44:19;;;;;;;9.43;6.35;;;;;;;;;;5014340;28;20061;-76
2021/06/09 12:47:05;;;;;;;8.63;6.90;;;;;;;;;;5012981;28;20041;-76
2021/06/09 12:49:32;;;;;;;8.88;6.15;;;;;;;;;;5022162;28;20120;-76
2021/06/09 12:52:11;;;;;;;7.78;6.97;;;;;;;;;;5027537;28;20034;-77
2021/06/09 12:54:49;;;;;;;9.48;7.60;;;;;;;;;;5012396;28;20361;-76
2021/06/09 12:57:15;;;;;;;7.82;7.10;;;;;;;;;;5007798;28;20038;-77
2021/06/09 12:59:40;;;;;;;9.45;8.20;;;;;;;;;;5013201;28;20046;-77
2021/06/09 13:02:06;;;;;;;7.18;6.35;;;;;;;;;;5013818;28;20033;-77
2021/06/09 13:04:42;;;;;;;8.02;7.05;;;;;;;;;;5013427;28;20043;-77
2021/06/09 13:07:08;;;;;;;6.25;5.65;;;;;;;;;;5014027;28;20510;-77
2021/06/09 13:09:34;;;;;;;9.55;6.50;;;;;;;;;;5013810;28;20034;-76
2021/06/09 13:12:01;;;;;;;7.93;7.13;;;;;;;;;;5014061;28;20033;-76
2021/06/09 13:14:41;;;;;;;8.48;6.35;;;;;;;;;;5012995;28;20395;-77
2021/06/09 13:17:07;;;;;;;5.78;5.15;;;;;;;;;;5014791;28;20030;-77
2021/06/09 13:19:33;;;;;;;5.70;5.07;;;;;;;;;;4995453;28;20180;-77
2021/06/09 13:21:59;;;;;;;6.32;5.05;;;;;;;;;;5030327;28;20033;-77
2021/06/09 13:24:34;;;;;;;10.15;6.80;;;;;;;;;;4996694;28;20099;-77
2021/06/09 13:26:59;;;;;;;6.88;6.15;;;;;;;;;;4996307;28;20041;-77
2021/06/09 13:29:27;;;;;;;9.48;7.40;;;;;;;;;;5045579;28;20037;-77
2021/06/09 13:31:54;;;;;;;8.93;7.13;;;;;;;;;;5013838;28;20437;-77
2021/06/09 13:34:22;;;;;;;8.82;5.63;;;;;;;;;;5013795;28;20116;-77
2021/06/09 13:36:54;;;;;;;8.20;6.20;;;;;;;;;;5013665;28;20036;-77
2021/06/09 13:39:21;;;;;;;5.10;4.45;;;;;;;;;;4997872;28;20399;-77
2021/06/09 13:41:47;;;;;;;8.27;7.38;;;;;;;;;;5013658;28;20057;-77
2021/06/09 13:44:12;;;;;;;9.10;6.15;;;;;;;;;;5013725;28;20064;-77
2021/06/09 13:46:53;;;;;;;12.90;11.50;;;;;;;;;;5012996;28;20040;-77
2021/06/09 13:49:32;;;;;;;13.15;9.95;;;;;;;;;;5007724;28;20037;-77
2021/06/09 13:51:59;;;;;;;11.15;8.95;;;;;;;;;;5010925;28;20037;-76
2021/06/09 13:54:40;;;;;;;9.13;8.07;;;;;;;;;;5013564;28;20045;-76
2021/06/09 13:57:10;;;;;;;8.07;7.25;;;;;;;;;;5013553;28;20043;-77
2021/06/09 13:59:43;;;;;;;8.98;7.03;;;;;;;;;;5013173;28;20175;-77
2021/06/09 14:02:14;;;;;;;8.20;7.18;;;;;;;;;;5034345;28;20148;-77
2021/06/09 14:04:40;;;;;;;6.40;5.60;;;;;;;;;;5030250;28;20046;-76
2021/06/09 14:07:13;;;;;;;6.20;5.55;;;;;;;;;;5016894;28;20040;-76
2021/06/09 14:09:48;;;;;;;7.63;5.85;;;;;;;;;;5017454;28;20040;-76
2021/06/09 14:12:13;;;;;;;7.53;6.22;;;;;;;;;;5016491;28;20029;-76
2021/06/09 14:14:39;;;;;;;8.13;5.63;;;;;;;;;;4999796;28;20380;-77
2021/06/09 14:17:28;;;;;;;6.65;5.90;;;;;;;;;;5017035;28;20042;-77
2021/06/09 14:20:05;;;;;;;7.05;6.35;;;;;;;;;;5027901;28;20064;-80
2021/06/09 14:22:35;;;;;;;8.40;5.57;;;;;;;;;;5002223;28;20033;-78
2021/06/09 14:25:18;;;;;;;6.72;5.07;;;;;;;;;;4996133;28;20100;-77
2021/06/09 14:28:11;;;;;;;6.07;5.47;;;;;;;;;;4996343;28;20036;-77
2021/06/09 14:30:38;;;;;;;6.75;6.10;;;;;;;;;;5030536;28;20032;-77
2021/06/09 14:34:13;;;;;;;6.85;5.70;;;;;;;;;;5032863;28;20041;-77
2021/06/09 14:36:44;;;;;;;6.53;5.27;;;;;;;;;;5007959;28;20041;-77
2021/06/09 14:39:12;;;;;;;5.95;5.38;;;;;;;;;;5019891;28;20056;-77
2021/06/09 14:41:41;;;;;;;6.57;5.40;;;;;;;;;;5016789;28;20104;-77
2021/06/09 14:45:01;;;;;;;6.45;5.15;;;;;;;;;;5019233;28;20040;-77
2021/06/09 14:49:32;;;;;;;6.22;5.53;;;;;;;;;;5017524;28;20033;-77
2021/06/09 14:51:57;;;;;;;6.28;5.70;;;;;;;;;;5016369;28;20503;-77
2021/06/09 14:54:23;;;;;;;6.03;5.20;;;;;;;;;;5000023;28;20116;-77
2021/06/09 14:56:49;;;;;;;7.93;6.03;;;;;;;;;;5012500;28;20033;-76
2021/06/09 14:59:14;;;;;;;7.32;4.50;;;;;;;;;;4996868;28;20045;-77
2021/06/09 15:01:40;;;;;;;4.93;4.45;;;;;;;;;;4996336;28;20058;-77
2021/06/09 15:04:06;;;;;;;6.10;5.03;;;;;;;;;;4996677;28;20041;-76